createdAt,value
2023-03-29T00:01:00.212Z,101670.00
2023-03-29T00:02:02.207Z,101668.28
2023-03-29T00:03:04.425Z,101670.00
2023-03-29T00:04:06.510Z,101669.09
2023-03-29T00:05:09.906Z,101669.09
2023-03-29T00:06:15.207Z,101669.06
2023-03-29T00:07:16.631Z,101663.81
2023-03-29T00:08:18.555Z,101662.09
2023-03-29T00:09:20.109Z,101662.94
2023-03-29T00:10:25.248Z,101661.19
2023-03-29T00:11:27.605Z,101655.13
2023-03-29T00:12:29.086Z,101656.00
2023-03-29T00:13:32.724Z,101653.38
2023-03-29T00:14:34.209Z,101659.41
2023-03-29T00:15:41.028Z,101648.16
2023-03-29T00:16:44.822Z,101649.00
2023-03-29T00:17:46.357Z,101647.28
2023-03-29T00:18:47.862Z,101641.19
2023-03-29T00:19:49.303Z,101639.47
2023-03-29T00:20:56.491Z,101648.97
2023-03-29T00:21:57.879Z,101641.16
2023-03-29T00:23:00.821Z,101641.16
2023-03-29T00:24:02.310Z,101639.41
2023-03-29T00:25:04.348Z,101632.53
2023-03-29T00:26:08.152Z,101636.88
2023-03-29T00:27:09.873Z,101636.00
2023-03-29T00:28:13.813Z,101633.41
2023-03-29T00:29:15.962Z,101632.53
2023-03-29T00:30:17.457Z,101631.72
2023-03-29T00:31:18.964Z,101624.75
2023-03-29T00:32:20.551Z,101628.19
2023-03-29T00:33:22.786Z,101629.09
2023-03-29T00:34:26.243Z,101627.34
2023-03-29T00:35:27.802Z,101622.13
2023-03-29T00:36:29.215Z,101623.84
2023-03-29T00:37:31.134Z,101623.00
2023-03-29T00:38:34.897Z,101612.59
2023-03-29T00:39:36.820Z,101609.97
2023-03-29T00:40:42.601Z,101613.41
2023-03-29T00:41:44.812Z,101612.56
2023-03-29T00:42:46.848Z,101603.88
2023-03-29T00:43:52.376Z,101603.88
2023-03-29T00:44:59.460Z,101610.81
2023-03-29T00:46:03.665Z,101605.63
2023-03-29T00:47:05.152Z,101605.63
2023-03-29T00:48:08.513Z,101601.34
2023-03-29T00:49:13.514Z,101598.75
2023-03-29T00:50:18.384Z,101600.44
2023-03-29T00:51:21.638Z,101601.28
2023-03-29T00:52:24.311Z,101596.06
2023-03-29T00:53:39.351Z,101597.81
2023-03-29T00:54:45.898Z,101604.75
2023-03-29T00:55:47.552Z,101595.22
2023-03-29T00:56:52.596Z,101592.63
2023-03-29T00:57:58.604Z,101588.28
2023-03-29T00:59:04.387Z,101580.47
2023-03-29T01:00:10.007Z,101581.34
2023-03-29T01:01:17.485Z,101583.03
2023-03-29T01:02:25.920Z,101581.28
2023-03-29T01:03:30.301Z,101578.69
2023-03-29T01:04:36.920Z,101576.09
2023-03-29T01:05:40.618Z,101568.31
2023-03-29T01:06:44.661Z,101564.00
2023-03-29T01:07:53.676Z,101561.41
2023-03-29T01:08:58.449Z,101557.94
2023-03-29T01:10:15.895Z,101560.53
2023-03-29T01:11:18.800Z,101556.22
2023-03-29T01:12:25.439Z,101551.91
2023-03-29T01:13:46.177Z,101555.34
2023-03-29T01:14:54.355Z,101544.13
2023-03-29T01:15:57.459Z,101545.88
2023-03-29T01:16:59.413Z,101539.81
2023-03-29T01:18:04.181Z,101531.97
2023-03-29T01:19:13.900Z,101536.31
2023-03-29T01:20:22.188Z,101528.50
2023-03-29T01:21:27.902Z,101526.72
2023-03-29T01:22:45.347Z,101525.88
2023-03-29T01:23:52.593Z,101524.13
2023-03-29T01:25:13.167Z,101518.91
2023-03-29T01:26:24.907Z,101515.47
2023-03-29T01:27:38.864Z,101517.19
2023-03-29T01:28:45.507Z,101507.72
2023-03-29T01:29:50.185Z,101512.00
2023-03-29T01:30:53.354Z,101504.22
2023-03-29T01:31:58.028Z,101509.38
2023-03-29T01:33:06.248Z,101505.94
2023-03-29T01:34:11.648Z,101508.53
2023-03-29T01:35:15.857Z,101501.59
2023-03-29T01:36:23.924Z,101500.75
2023-03-29T01:37:38.767Z,101497.31
2023-03-29T01:38:41.477Z,101492.97
2023-03-29T01:39:42.964Z,101493.84
2023-03-29T01:40:45.886Z,101498.16
2023-03-29T01:42:02.537Z,101495.56
2023-03-29T01:43:22.896Z,101495.56
2023-03-29T01:44:31.654Z,101494.72
2023-03-29T01:45:50.448Z,101499.03
2023-03-29T01:46:55.958Z,101492.13
2023-03-29T01:47:57.858Z,101489.53
2023-03-29T01:49:03.928Z,101496.41
2023-03-29T01:50:15.555Z,101487.75
2023-03-29T01:51:26.543Z,101488.63
2023-03-29T01:52:32.221Z,101487.75
2023-03-29T01:53:42.902Z,101484.28
2023-03-29T01:54:51.980Z,101486.88
2023-03-29T01:55:59.045Z,101480.81
2023-03-29T01:57:01.085Z,101482.53
2023-03-29T01:58:03.893Z,101479.03
2023-03-29T01:59:15.957Z,101477.31
2023-03-29T02:00:19.574Z,101474.69
2023-03-29T02:01:28.917Z,101477.25
2023-03-29T02:02:31.681Z,101467.75
2023-03-29T02:03:42.674Z,101467.69
2023-03-29T02:04:50.224Z,101465.97
2023-03-29T02:05:53.801Z,101466.81
2023-03-29T02:06:58.012Z,101466.78
2023-03-29T02:08:05.029Z,101464.19
2023-03-29T02:09:10.618Z,101462.41
2023-03-29T02:10:13.254Z,101465.00
2023-03-29T02:11:16.484Z,101464.16
2023-03-29T02:12:18.563Z,101463.25
2023-03-29T02:13:20.603Z,101454.59
2023-03-29T02:14:25.048Z,101455.47
2023-03-29T02:15:30.255Z,101452.00
2023-03-29T02:16:38.905Z,101451.09
2023-03-29T02:17:40.842Z,101456.28
2023-03-29T02:18:44.590Z,101455.44
2023-03-29T02:19:50.156Z,101448.50
2023-03-29T02:20:56.208Z,101445.88
2023-03-29T02:22:04.667Z,101452.81
2023-03-29T02:23:06.217Z,101445.03
2023-03-29T02:24:09.315Z,101444.16
2023-03-29T02:25:14.437Z,101444.16
2023-03-29T02:26:17.968Z,101441.56
2023-03-29T02:27:23.056Z,101444.16
2023-03-29T02:28:26.272Z,101438.97
2023-03-29T02:29:30.996Z,101442.44
2023-03-29T02:30:39.055Z,101441.56
2023-03-29T02:31:55.258Z,101438.97
2023-03-29T02:33:07.331Z,101442.41
2023-03-29T02:34:21.229Z,101434.63
2023-03-29T02:35:28.961Z,101432.00
2023-03-29T02:36:50.783Z,101427.69
2023-03-29T02:37:54.770Z,101428.53
2023-03-29T02:38:58.646Z,101424.22
2023-03-29T02:40:00.455Z,101422.47
2023-03-29T02:41:03.064Z,101419.84
2023-03-29T02:42:07.966Z,101419.03
2023-03-29T02:43:13.668Z,101416.38
2023-03-29T02:44:20.403Z,101418.09
2023-03-29T02:45:28.067Z,101412.91
2023-03-29T02:46:29.844Z,101420.69
2023-03-29T02:47:34.898Z,101420.66
2023-03-29T02:48:49.061Z,101419.75
2023-03-29T02:49:50.854Z,101423.25
2023-03-29T02:50:54.918Z,101418.91
2023-03-29T02:51:59.196Z,101417.16
2023-03-29T02:53:04.806Z,101416.28
2023-03-29T02:54:29.781Z,101414.56
2023-03-29T02:55:34.680Z,101411.94
2023-03-29T02:56:46.410Z,101417.09
2023-03-29T02:57:49.279Z,101405.88
2023-03-29T02:58:50.744Z,101404.13
2023-03-29T02:59:54.221Z,101406.69
2023-03-29T03:00:56.444Z,101402.34
2023-03-29T03:02:00.982Z,101401.50
2023-03-29T03:03:04.541Z,101399.72
2023-03-29T03:04:06.240Z,101396.28
2023-03-29T03:05:10.837Z,101392.78
2023-03-29T03:06:14.101Z,101390.16
2023-03-29T03:07:15.484Z,101385.81
2023-03-29T03:08:17.023Z,101390.97
2023-03-29T03:09:19.218Z,101397.03
2023-03-29T03:10:22.220Z,101390.09
2023-03-29T03:11:24.093Z,101390.94
2023-03-29T03:12:25.800Z,101390.06
2023-03-29T03:13:29.710Z,101391.75
2023-03-29T03:14:31.270Z,101390.88
2023-03-29T03:15:35.885Z,101384.84
2023-03-29T03:16:37.621Z,101383.94
2023-03-29T03:17:40.039Z,101376.16
2023-03-29T03:18:41.968Z,101380.47
2023-03-29T03:19:43.933Z,101379.56
2023-03-29T03:20:56.368Z,101377.88
2023-03-29T03:21:58.290Z,101376.09
2023-03-29T03:23:02.014Z,101375.19
2023-03-29T03:24:11.174Z,101381.25
2023-03-29T03:25:16.792Z,101370.84
2023-03-29T03:26:18.920Z,101371.69
2023-03-29T03:27:21.221Z,101375.13
2023-03-29T03:28:24.477Z,101370.78
2023-03-29T03:29:26.307Z,101376.84
2023-03-29T03:31:00.021Z,101363.00
2023-03-29T03:32:36.715Z,101366.41
2023-03-29T03:34:01.322Z,101368.13
2023-03-29T03:35:24.579Z,101362.91
2023-03-29T03:36:29.146Z,101355.13
2023-03-29T03:37:31.766Z,101363.75
2023-03-29T03:38:36.242Z,101353.38
2023-03-29T03:39:38.896Z,101358.53
2023-03-29T03:40:43.433Z,101365.44
2023-03-29T03:41:45.978Z,101356.78
2023-03-29T03:42:47.605Z,101364.53
2023-03-29T03:43:50.562Z,101358.50
2023-03-29T03:44:52.087Z,101355.88
2023-03-29T03:46:14.132Z,101356.72
2023-03-29T03:47:16.152Z,101342.84
2023-03-29T03:48:39.828Z,101348.94
2023-03-29T03:50:02.879Z,101349.75
2023-03-29T03:51:05.909Z,101342.81
2023-03-29T03:52:10.232Z,101349.69
2023-03-29T03:53:11.864Z,101349.69
2023-03-29T03:54:43.838Z,101349.69
2023-03-29T03:56:09.309Z,101349.66
2023-03-29T03:57:25.178Z,101347.91
2023-03-29T03:58:28.866Z,101344.41
2023-03-29T03:59:30.872Z,101341.81
2023-03-29T04:00:40.354Z,101340.06
2023-03-29T04:02:06.918Z,101346.97
2023-03-29T04:03:11.239Z,101346.09
2023-03-29T04:04:13.363Z,101342.66
2023-03-29T04:05:25.453Z,101334.81
2023-03-29T04:06:30.509Z,101336.56
2023-03-29T04:07:50.451Z,101336.53
2023-03-29T04:10:56.744Z,101339.88
2023-03-29T04:12:04.191Z,101340.69
2023-03-29T04:13:05.852Z,101333.75
2023-03-29T04:14:16.259Z,101334.56
2023-03-29T04:15:41.255Z,101329.41
2023-03-29T04:16:47.774Z,101331.13
2023-03-29T04:18:12.665Z,101330.28
2023-03-29T04:19:19.404Z,101329.41
2023-03-29T04:20:27.157Z,101334.56
2023-03-29T04:21:30.864Z,101333.72
2023-03-29T04:22:32.912Z,101334.56
2023-03-29T04:23:36.231Z,101339.75
2023-03-29T04:24:37.792Z,101335.44
2023-03-29T04:26:02.319Z,101332.84
2023-03-29T04:27:25.053Z,101337.16
2023-03-29T04:28:26.544Z,101334.56
2023-03-29T04:29:41.548Z,101334.56
2023-03-29T04:30:53.371Z,101336.31
2023-03-29T04:32:06.128Z,101333.75
2023-03-29T04:33:19.862Z,101329.47
2023-03-29T04:34:28.778Z,101326.88
2023-03-29T04:35:31.050Z,101331.19
2023-03-29T04:36:32.957Z,101324.31
2023-03-29T04:37:41.794Z,101323.44
2023-03-29T04:38:47.745Z,101320.84
2023-03-29T04:39:52.680Z,101324.31
2023-03-29T04:40:55.192Z,101320.84
2023-03-29T04:42:16.286Z,101316.56
2023-03-29T04:43:20.599Z,101316.53
2023-03-29T04:44:34.109Z,101319.16
2023-03-29T04:45:39.097Z,101319.16
2023-03-29T04:46:51.421Z,101319.97
2023-03-29T04:47:54.076Z,101325.19
2023-03-29T04:48:55.694Z,101324.31
2023-03-29T04:50:10.009Z,101317.41
2023-03-29T04:51:16.413Z,101314.00
2023-03-29T04:52:24.293Z,101310.50
2023-03-29T04:53:28.936Z,101315.69
2023-03-29T04:54:30.819Z,101312.25
2023-03-29T04:55:50.980Z,101312.25
2023-03-29T04:57:11.143Z,101312.28
2023-03-29T04:58:24.419Z,101318.34
2023-03-29T04:59:28.853Z,101310.59
2023-03-29T05:00:39.829Z,101309.72
2023-03-29T05:01:56.592Z,101311.47
2023-03-29T05:03:01.959Z,101302.84
2023-03-29T05:04:07.275Z,101308.03
2023-03-29T05:06:18.020Z,101302.03
2023-03-29T05:07:19.836Z,101306.34
2023-03-29T05:08:21.987Z,101302.03
2023-03-29T05:09:49.649Z,101299.47
2023-03-29T05:10:51.443Z,101297.72
2023-03-29T05:11:53.677Z,101298.63
2023-03-29T05:12:56.952Z,101299.50
2023-03-29T05:14:03.584Z,101284.81
2023-03-29T05:15:10.948Z,101300.38
2023-03-29T05:16:12.778Z,101295.19
2023-03-29T05:17:17.136Z,101296.97
2023-03-29T05:18:19.953Z,101303.03
2023-03-29T05:19:25.408Z,101290.06
2023-03-29T05:20:27.375Z,101305.63
2023-03-29T05:21:33.618Z,101295.28
2023-03-29T05:22:40.346Z,101296.13
2023-03-29T05:23:48.225Z,101293.56
2023-03-29T05:24:57.519Z,101296.16
2023-03-29T05:26:01.653Z,101291.88
2023-03-29T05:27:04.046Z,101295.31
2023-03-29T05:28:09.679Z,101295.31
2023-03-29T05:29:15.941Z,101295.31
2023-03-29T05:30:20.567Z,101297.91
2023-03-29T05:31:32.744Z,101294.47
2023-03-29T05:32:38.149Z,101294.47
2023-03-29T05:33:41.177Z,101292.72
2023-03-29T05:34:43.780Z,101299.66
2023-03-29T05:35:46.359Z,101294.50
2023-03-29T05:36:49.106Z,101284.16
2023-03-29T05:37:51.304Z,101289.34
2023-03-29T05:38:52.838Z,101283.31
2023-03-29T05:40:05.940Z,101287.63
2023-03-29T05:41:13.177Z,101279.88
2023-03-29T05:42:35.964Z,101285.91
2023-03-29T05:43:42.034Z,101285.94
2023-03-29T05:44:44.291Z,101282.44
2023-03-29T05:45:53.646Z,101278.16
2023-03-29T05:46:59.875Z,101283.34
2023-03-29T05:48:01.938Z,101286.78
2023-03-29T05:49:04.509Z,101273.84
2023-03-29T05:50:30.222Z,101281.63
2023-03-29T05:51:33.383Z,101280.78
2023-03-29T05:52:35.055Z,101274.75
2023-03-29T05:53:37.807Z,101266.97
2023-03-29T05:54:42.605Z,101276.44
2023-03-29T05:55:46.725Z,101268.69
2023-03-29T05:56:51.230Z,101270.44
2023-03-29T05:57:52.742Z,101267.03
2023-03-29T05:59:02.226Z,101267.03
2023-03-29T06:00:15.746Z,101273.09
2023-03-29T06:01:19.990Z,101268.81
2023-03-29T06:02:36.665Z,101271.44
2023-03-29T06:03:39.170Z,101273.19
2023-03-29T06:04:40.865Z,101268.88
2023-03-29T06:06:05.496Z,101273.25
2023-03-29T06:07:10.283Z,101267.22
2023-03-29T06:08:12.658Z,101263.78
2023-03-29T06:09:30.577Z,101263.81
2023-03-29T06:10:37.497Z,101263.84
2023-03-29T06:12:02.487Z,101262.16
2023-03-29T06:13:13.861Z,101269.94
2023-03-29T06:14:15.643Z,101267.38
2023-03-29T06:15:24.364Z,101268.28
2023-03-29T06:16:30.729Z,101265.69
2023-03-29T06:17:36.089Z,101266.63
2023-03-29T06:18:40.300Z,101270.94
2023-03-29T06:19:42.850Z,101269.25
2023-03-29T06:20:51.954Z,101266.69
2023-03-29T06:21:54.509Z,101264.13
2023-03-29T06:23:00.036Z,101265.88
2023-03-29T06:24:03.663Z,101270.25
2023-03-29T06:25:12.512Z,101267.66
2023-03-29T06:26:16.400Z,101265.94
2023-03-29T06:27:19.184Z,101269.44
2023-03-29T06:28:21.538Z,101268.59
2023-03-29T06:29:30.959Z,101269.47
2023-03-29T06:30:32.965Z,101271.25
2023-03-29T06:31:36.347Z,101271.25
2023-03-29T06:32:39.674Z,101274.72
2023-03-29T06:33:50.263Z,101270.44
2023-03-29T06:35:11.714Z,101267.84
2023-03-29T06:36:16.294Z,101270.47
2023-03-29T06:37:21.428Z,101270.50
2023-03-29T06:38:30.888Z,101271.41
2023-03-29T06:40:06.962Z,101272.28
2023-03-29T06:41:26.718Z,101279.22
2023-03-29T06:42:41.891Z,101271.47
2023-03-29T06:44:03.975Z,101274.97
2023-03-29T06:45:10.530Z,101268.94
2023-03-29T06:46:14.311Z,101273.28
2023-03-29T06:47:32.608Z,101274.19
2023-03-29T06:48:34.475Z,101274.22
2023-03-29T06:49:36.144Z,101275.13
2023-03-29T06:50:56.896Z,101276.00
2023-03-29T06:52:01.354Z,101272.59
2023-03-29T06:53:04.848Z,101270.88
2023-03-29T06:54:09.500Z,101269.19
2023-03-29T06:55:16.466Z,101270.94
2023-03-29T06:56:17.969Z,101269.22
2023-03-29T06:57:24.434Z,101270.13
2023-03-29T06:58:33.574Z,101263.19
2023-03-29T06:59:49.488Z,101269.25
2023-03-29T07:01:00.384Z,101273.63
2023-03-29T07:02:12.541Z,101270.22
2023-03-29T07:03:30.321Z,101278.88
2023-03-29T07:04:32.639Z,101267.63
2023-03-29T07:05:44.932Z,101271.16
2023-03-29T07:07:02.492Z,101271.19
2023-03-29T07:08:15.324Z,101272.09
2023-03-29T07:09:33.811Z,101271.25
2023-03-29T07:10:52.878Z,101270.38
2023-03-29T07:12:14.058Z,101274.72
2023-03-29T07:13:16.237Z,101284.28
2023-03-29T07:14:18.496Z,101273.88
2023-03-29T07:15:21.478Z,101279.09
2023-03-29T07:16:47.234Z,101280.88
2023-03-29T07:17:53.989Z,101283.47
2023-03-29T07:18:55.720Z,101284.38
2023-03-29T07:20:19.720Z,101286.13
2023-03-29T07:21:24.676Z,101285.28
2023-03-29T07:22:26.123Z,101281.84
2023-03-29T07:23:33.730Z,101281.00
2023-03-29T07:24:35.259Z,101282.75
2023-03-29T07:25:37.439Z,101283.59
2023-03-29T07:26:49.208Z,101281.03
2023-03-29T07:27:59.901Z,101282.78
2023-03-29T07:29:01.531Z,101285.38
2023-03-29T07:30:09.752Z,101281.94
2023-03-29T07:31:17.467Z,101284.56
2023-03-29T07:32:26.065Z,101275.03
2023-03-29T07:33:40.078Z,101279.38
2023-03-29T07:34:42.778Z,101281.13
2023-03-29T07:35:52.550Z,101280.28
2023-03-29T07:36:56.393Z,101273.38
2023-03-29T07:37:58.456Z,101270.78
2023-03-29T07:39:03.726Z,101272.53
2023-03-29T07:40:15.996Z,101274.28
2023-03-29T07:41:39.827Z,101277.81
2023-03-29T07:42:51.265Z,101281.25
2023-03-29T07:43:55.798Z,101276.06
2023-03-29T07:44:59.997Z,101280.44
2023-03-29T07:46:11.543Z,101274.38
2023-03-29T07:47:16.605Z,101275.25
2023-03-29T07:48:19.625Z,101269.19
2023-03-29T07:49:44.847Z,101272.66
2023-03-29T07:50:46.465Z,101273.56
2023-03-29T07:51:54.921Z,101268.38
2023-03-29T07:52:56.915Z,101264.91
2023-03-29T07:53:59.766Z,101277.94
2023-03-29T07:55:17.083Z,101277.94
2023-03-29T07:56:32.312Z,101271.91
2023-03-29T07:58:04.441Z,101268.47
2023-03-29T07:59:08.828Z,101268.47
2023-03-29T08:00:15.897Z,101271.09
2023-03-29T08:01:28.816Z,101268.50
2023-03-29T08:02:52.381Z,101269.41
2023-03-29T08:03:55.089Z,101266.81
2023-03-29T08:05:09.874Z,101260.78
2023-03-29T08:06:30.794Z,101259.06
2023-03-29T08:07:32.973Z,101259.94
2023-03-29T08:08:46.883Z,101254.75
2023-03-29T08:09:51.347Z,101255.66
2023-03-29T08:10:54.738Z,101260.00
2023-03-29T08:12:31.368Z,101260.00
2023-03-29T08:13:33.937Z,101258.28
2023-03-29T08:15:11.180Z,101261.78
2023-03-29T08:16:12.767Z,101259.19
2023-03-29T08:17:22.126Z,101253.97
2023-03-29T08:18:32.813Z,101253.13
2023-03-29T08:19:37.158Z,101250.53
2023-03-29T08:20:40.991Z,101247.09
2023-03-29T08:21:42.762Z,101247.94
2023-03-29T08:22:46.182Z,101255.75
2023-03-29T08:24:14.661Z,101248.84
2023-03-29T08:25:21.719Z,101247.09
2023-03-29T08:26:26.898Z,101247.13
2023-03-29T08:27:30.962Z,101247.13
2023-03-29T08:28:35.906Z,101245.41
2023-03-29T08:29:38.038Z,101242.84
2023-03-29T08:30:39.770Z,101245.44
2023-03-29T08:31:41.471Z,101240.25
2023-03-29T08:32:43.565Z,101245.44
2023-03-29T08:33:49.193Z,101242.84
2023-03-29T08:35:12.855Z,101238.53
2023-03-29T08:36:26.420Z,101234.19
2023-03-29T08:37:31.331Z,101235.06
2023-03-29T08:38:33.024Z,101232.47
2023-03-29T08:39:35.073Z,101238.53
2023-03-29T08:40:50.756Z,101232.47
2023-03-29T08:41:59.665Z,101230.72
2023-03-29T08:43:23.988Z,101222.06
2023-03-29T08:45:02.591Z,101222.06
2023-03-29T08:46:21.209Z,101232.50
2023-03-29T08:47:35.689Z,101227.31
2023-03-29T08:48:46.156Z,101223.81
2023-03-29T08:50:00.670Z,101228.16
2023-03-29T08:51:19.988Z,101233.38
2023-03-29T08:52:31.255Z,101226.44
2023-03-29T08:53:37.318Z,101227.31
2023-03-29T08:54:49.726Z,101234.25
2023-03-29T08:56:09.632Z,101230.81
2023-03-29T08:57:32.559Z,101236.88
2023-03-29T08:58:48.451Z,101233.41
2023-03-29T08:59:53.433Z,101231.66
2023-03-29T09:00:59.516Z,101230.78
2023-03-29T09:02:05.632Z,101233.41
2023-03-29T09:03:11.340Z,101236.91
2023-03-29T09:04:16.307Z,101236.91
2023-03-29T09:05:37.968Z,101240.34
2023-03-29T09:06:52.121Z,101230.81
2023-03-29T09:07:58.000Z,101232.56
2023-03-29T09:09:02.902Z,101235.16
2023-03-29T09:10:05.720Z,101228.22
2023-03-29T09:11:24.945Z,101231.69
2023-03-29T09:12:27.550Z,101237.81
2023-03-29T09:13:31.869Z,101229.13
2023-03-29T09:14:37.200Z,101232.59
2023-03-29T09:16:07.590Z,101230.00
2023-03-29T09:17:16.640Z,101229.13
2023-03-29T09:18:18.477Z,101230.00
2023-03-29T09:19:21.057Z,101221.31
2023-03-29T09:21:01.524Z,101227.38
2023-03-29T09:22:17.822Z,101225.66
2023-03-29T09:23:25.701Z,101218.69
2023-03-29T09:24:54.139Z,101222.19
2023-03-29T09:26:13.850Z,101219.53
2023-03-29T09:27:55.116Z,101223.88
2023-03-29T09:29:35.244Z,101210.88
2023-03-29T09:30:41.510Z,101222.16
2023-03-29T09:31:49.498Z,101217.78
2023-03-29T09:32:56.873Z,101220.41
2023-03-29T09:34:13.108Z,101220.38
2023-03-29T09:35:36.001Z,101220.34
2023-03-29T09:36:46.937Z,101219.47
2023-03-29T09:37:51.265Z,101216.88
2023-03-29T09:38:54.572Z,101211.63
2023-03-29T09:39:59.833Z,101211.63
2023-03-29T09:41:25.184Z,101212.47
2023-03-29T09:42:28.781Z,101205.47
2023-03-29T09:50:34.068Z,101209.75
2023-03-29T09:51:43.026Z,101203.63
2023-03-29T09:52:49.320Z,101200.13
2023-03-29T09:53:58.154Z,101207.91
2023-03-29T09:55:33.841Z,101207.03
2023-03-29T09:56:59.543Z,101200.03
2023-03-29T09:58:01.876Z,101198.25
2023-03-29T09:59:11.310Z,101198.28
2023-03-29T10:00:13.900Z,101193.03
2023-03-29T10:01:17.350Z,101192.13
2023-03-29T10:02:20.358Z,101182.53
2023-03-29T10:03:28.576Z,101192.09
2023-03-29T10:04:52.826Z,101181.63
2023-03-29T10:05:56.422Z,101178.13
2023-03-29T10:06:58.800Z,101181.56
2023-03-29T10:08:01.308Z,101176.34
2023-03-29T10:09:06.577Z,101178.03
2023-03-29T10:10:24.736Z,101180.66
2023-03-29T10:11:30.721Z,101182.38
2023-03-29T10:12:34.406Z,101184.09
2023-03-29T10:13:36.878Z,101182.31
2023-03-29T10:14:39.819Z,101179.69
2023-03-29T10:15:44.253Z,101186.66
2023-03-29T10:16:46.413Z,101183.16
2023-03-29T10:17:48.300Z,101179.69
2023-03-29T10:18:50.284Z,101179.69
2023-03-29T10:20:08.158Z,101175.31
2023-03-29T10:21:18.042Z,101180.56
2023-03-29T10:22:22.902Z,101177.94
2023-03-29T10:23:24.580Z,101174.44
2023-03-29T10:24:26.669Z,101167.47
2023-03-29T10:25:32.894Z,101177.06
2023-03-29T10:26:38.812Z,101177.03
2023-03-29T10:27:43.451Z,101173.56
2023-03-29T10:28:45.028Z,101175.28
2023-03-29T10:29:47.331Z,101175.25
2023-03-29T10:30:53.895Z,101170.00
2023-03-29T10:31:56.501Z,101172.63
2023-03-29T10:32:59.796Z,101170.88
2023-03-29T10:34:04.644Z,101159.53
2023-03-29T10:35:17.782Z,101170.84
2023-03-29T10:36:19.591Z,101173.44
2023-03-29T10:37:22.986Z,101178.66
2023-03-29T10:38:27.967Z,101173.38
2023-03-29T10:39:35.671Z,101169.03
2023-03-29T10:40:42.584Z,101172.47
2023-03-29T10:41:49.829Z,101172.47
2023-03-29T10:42:52.165Z,101173.31
2023-03-29T10:43:54.208Z,101165.44
2023-03-29T10:44:57.518Z,101167.19
2023-03-29T10:46:06.779Z,101162.81
2023-03-29T10:47:20.332Z,101159.31
2023-03-29T10:48:29.325Z,101166.28
2023-03-29T10:49:33.438Z,101164.50
2023-03-29T10:50:38.263Z,101164.50
2023-03-29T10:51:46.872Z,101161.00
2023-03-29T10:52:50.398Z,101159.25
2023-03-29T10:53:51.859Z,101153.16
2023-03-29T10:54:55.296Z,101154.00
2023-03-29T10:56:15.519Z,101153.16
2023-03-29T10:57:26.407Z,101160.09
2023-03-29T10:58:28.044Z,101156.59
2023-03-29T10:59:36.076Z,101156.56
2023-03-29T11:00:44.000Z,101163.50
2023-03-29T11:01:48.728Z,101159.13
2023-03-29T11:03:09.744Z,101165.19
2023-03-29T11:04:24.524Z,101164.28
2023-03-29T11:05:44.727Z,101165.13
2023-03-29T11:06:55.569Z,101173.81
2023-03-29T11:08:24.838Z,101168.53
2023-03-29T11:09:41.431Z,101171.16
2023-03-29T11:11:02.559Z,101166.84
2023-03-29T11:12:15.039Z,101166.84
2023-03-29T11:13:28.399Z,101165.94
2023-03-29T11:14:39.104Z,101167.69
2023-03-29T11:15:54.762Z,101165.03
2023-03-29T11:17:15.191Z,101165.88
2023-03-29T11:18:19.576Z,101158.91
2023-03-29T11:19:32.448Z,101157.16
2023-03-29T11:20:53.321Z,101155.38
2023-03-29T11:21:57.553Z,101152.72
2023-03-29T11:23:14.490Z,101136.16
2023-03-29T11:24:46.982Z,101142.19
2023-03-29T11:25:54.621Z,101133.44
2023-03-29T11:26:56.751Z,101131.69
2023-03-29T11:28:19.004Z,101138.59
2023-03-29T11:29:23.937Z,101131.59
2023-03-29T11:30:29.048Z,101135.97
2023-03-29T11:31:50.221Z,101133.31
2023-03-29T11:32:54.024Z,101135.06
2023-03-29T11:33:55.734Z,101135.94
2023-03-29T11:35:01.593Z,101142.94
2023-03-29T11:36:13.856Z,101140.28
2023-03-29T11:37:28.671Z,101138.53
2023-03-29T11:38:34.525Z,101140.28
2023-03-29T11:40:00.649Z,101138.53
2023-03-29T11:41:30.209Z,101135.91
2023-03-29T11:42:35.136Z,101141.16
2023-03-29T11:43:45.023Z,101141.13
2023-03-29T11:44:50.736Z,101145.50
2023-03-29T11:46:00.268Z,101148.09
2023-03-29T11:47:15.045Z,101147.22
2023-03-29T11:48:23.028Z,101142.81
2023-03-29T11:49:28.847Z,101143.66
2023-03-29T11:50:45.564Z,101151.50
2023-03-29T11:51:51.111Z,101135.78
2023-03-29T11:52:54.885Z,101140.09
2023-03-29T11:53:57.237Z,101137.47
2023-03-29T11:55:05.668Z,101139.19
2023-03-29T11:56:26.374Z,101135.66
2023-03-29T11:57:40.747Z,101134.81
2023-03-29T11:58:50.665Z,101144.41
2023-03-29T12:00:05.456Z,101140.03
2023-03-29T12:01:30.866Z,101147.00
2023-03-29T12:02:37.235Z,101142.66
2023-03-29T12:03:54.518Z,101138.25
2023-03-29T12:05:00.209Z,101144.41
2023-03-29T12:06:10.210Z,101147.00
2023-03-29T12:07:25.304Z,101147.00
2023-03-29T12:08:32.480Z,101147.00
2023-03-29T12:10:02.819Z,101146.13
2023-03-29T12:11:17.370Z,101140.84
2023-03-29T12:12:20.451Z,101139.97
2023-03-29T12:13:37.070Z,101140.84
2023-03-29T12:15:06.144Z,101138.25
2023-03-29T12:16:28.761Z,101131.31
2023-03-29T12:17:38.858Z,101132.19
2023-03-29T12:18:46.885Z,101126.94
2023-03-29T12:20:05.861Z,101139.13
2023-03-29T12:21:19.295Z,101126.88
2023-03-29T12:22:22.132Z,101116.41
2023-03-29T12:23:23.812Z,101129.53
2023-03-29T12:24:26.816Z,101126.00
2023-03-29T12:25:34.890Z,101120.78
2023-03-29T12:26:42.656Z,101119.84
2023-03-29T12:27:49.074Z,101128.53
2023-03-29T12:29:09.608Z,101125.88
2023-03-29T12:30:27.591Z,101134.59
2023-03-29T12:31:48.992Z,101126.72
2023-03-29T12:32:57.527Z,101129.34
2023-03-29T12:34:52.876Z,101122.41
2023-03-29T12:36:24.708Z,101130.25
2023-03-29T12:38:09.807Z,101128.50
2023-03-29T12:39:30.619Z,101128.50
2023-03-29T12:41:03.093Z,101118.91
2023-03-29T12:42:24.638Z,101128.50
2023-03-29T12:43:45.986Z,101121.53
2023-03-29T12:45:22.228Z,101122.34
2023-03-29T12:46:29.511Z,101123.25
2023-03-29T12:47:44.604Z,101124.06
2023-03-29T12:48:51.749Z,101119.69
2023-03-29T12:50:00.596Z,101123.19
2023-03-29T12:51:29.201Z,101122.31
2023-03-29T12:52:36.855Z,101115.31
2023-03-29T12:53:46.539Z,101111.81
2023-03-29T12:54:59.635Z,101108.25
2023-03-29T12:56:19.940Z,101109.97
2023-03-29T12:57:40.171Z,101108.22
2023-03-29T12:58:52.944Z,101116.03
2023-03-29T13:00:09.562Z,101115.97
2023-03-29T13:01:26.554Z,101111.63
2023-03-29T13:02:34.988Z,101115.94
2023-03-29T13:03:42.887Z,101115.94
2023-03-29T13:04:58.218Z,101112.47
2023-03-29T13:06:06.974Z,101105.53
2023-03-29T13:07:26.263Z,101109.94
2023-03-29T13:08:33.509Z,101102.03
2023-03-29T13:09:47.251Z,101103.78
2023-03-29T13:10:53.198Z,101112.47
2023-03-29T13:11:57.100Z,101109.00
2023-03-29T13:13:08.574Z,101106.34
2023-03-29T13:14:16.496Z,101108.91
2023-03-29T13:15:18.046Z,101103.66
2023-03-29T13:16:21.777Z,101099.22
2023-03-29T13:17:35.088Z,101103.53